createdAt,value
2022-08-27T00:00:46.662Z,10.23
2022-08-27T00:03:13.208Z,10.93
2022-08-27T00:05:40.758Z,9.38
2022-08-27T00:08:09.495Z,11.57
2022-08-27T00:10:36.014Z,9.70
2022-08-27T00:13:02.421Z,8.88
2022-08-27T00:15:29.576Z,9.15
2022-08-27T00:17:56.032Z,8.90
2022-08-27T00:20:25.886Z,12.23
2022-08-27T00:22:53.197Z,11.07
2022-08-27T00:25:20.793Z,11.63
2022-08-27T00:27:47.177Z,9.95
2022-08-27T00:30:16.188Z,11.30
2022-08-27T00:32:43.318Z,9.77
2022-08-27T00:35:10.093Z,10.18
2022-08-27T00:37:36.869Z,9.05
2022-08-27T00:40:09.630Z,8.52
2022-08-27T00:42:36.092Z,7.78
2022-08-27T00:45:05.952Z,7.75
2022-08-27T00:47:40.580Z,7.50
2022-08-27T00:50:14.441Z,7.28
2022-08-27T00:53:03.053Z,7.72
2022-08-27T00:55:37.637Z,7.32
2022-08-27T00:58:16.282Z,6.63
2022-08-27T01:00:44.928Z,6.80
2022-08-27T01:03:12.145Z,7.50
2022-08-27T01:05:39.149Z,6.10
2022-08-27T01:08:13.729Z,6.68
2022-08-27T01:10:41.929Z,6.80
2022-08-27T01:13:10.294Z,6.15
2022-08-27T01:15:41.049Z,6.28
2022-08-27T01:18:12.223Z,5.68
2022-08-27T01:21:04.373Z,6.35
2022-08-27T01:23:52.332Z,5.75
2022-08-27T01:26:18.841Z,7.20
2022-08-27T01:28:45.820Z,5.75
2022-08-27T01:31:13.112Z,6.40
2022-08-27T01:33:39.763Z,5.50
2022-08-27T01:36:06.900Z,5.97
2022-08-27T01:38:34.330Z,5.95
2022-08-27T01:41:01.814Z,6.22
2022-08-27T01:43:29.284Z,5.97
2022-08-27T01:45:55.707Z,6.40
2022-08-27T01:48:22.606Z,7.28
2022-08-27T01:50:50.186Z,6.18
2022-08-27T01:53:23.258Z,7.80
2022-08-27T01:55:51.656Z,6.30
2022-08-27T01:58:21.030Z,7.60
2022-08-27T02:00:51.943Z,6.22
2022-08-27T02:03:22.905Z,7.53
2022-08-27T02:05:49.434Z,6.95
2022-08-27T02:08:17.577Z,8.00
2022-08-27T02:10:45.919Z,6.22
2022-08-27T02:13:13.413Z,7.38
2022-08-27T02:15:41.484Z,6.57
2022-08-27T02:18:09.753Z,7.15
2022-08-27T02:20:36.866Z,5.97
2022-08-27T02:23:04.675Z,5.95
2022-08-27T02:25:31.141Z,6.15
2022-08-27T02:28:00.140Z,6.25
2022-08-27T02:30:28.046Z,6.40
2022-08-27T02:32:54.443Z,5.85
2022-08-27T02:35:24.096Z,6.47
2022-08-27T02:37:51.613Z,6.15
2022-08-27T02:40:21.251Z,6.82
2022-08-27T02:42:47.860Z,6.10
2022-08-27T02:45:16.470Z,7.22
2022-08-27T02:47:43.378Z,5.93
2022-08-27T02:50:11.081Z,7.32
2022-08-27T02:52:37.836Z,5.80
2022-08-27T02:55:05.316Z,6.68
2022-08-27T02:57:36.661Z,7.45
2022-08-27T03:00:06.496Z,8.50
2022-08-27T03:02:33.033Z,7.50
2022-08-27T03:04:59.484Z,7.22
2022-08-27T03:07:25.944Z,7.75
2022-08-27T03:09:52.687Z,7.53
2022-08-27T03:12:19.382Z,7.93
2022-08-27T03:14:49.114Z,7.20
2022-08-27T03:17:34.506Z,8.68
2022-08-27T03:20:02.057Z,7.28
2022-08-27T03:22:28.502Z,8.40
2022-08-27T03:24:56.245Z,7.97
2022-08-27T03:27:22.879Z,9.35
2022-08-27T03:29:49.267Z,8.15
2022-08-27T03:32:15.681Z,9.38
2022-08-27T03:34:42.357Z,8.10
2022-08-27T03:37:08.779Z,8.82
2022-08-27T03:39:35.164Z,8.73
2022-08-27T03:42:01.554Z,8.65
2022-08-27T03:44:27.977Z,8.85
2022-08-27T03:46:55.016Z,10.05
2022-08-27T03:49:22.291Z,10.30
2022-08-27T03:51:52.659Z,9.02
2022-08-27T03:54:19.095Z,9.98
2022-08-27T03:56:45.526Z,10.00
2022-08-27T03:59:11.966Z,10.57
2022-08-27T04:01:38.658Z,8.95
2022-08-27T04:04:05.147Z,8.93
2022-08-27T04:06:33.253Z,8.05
2022-08-27T04:09:00.224Z,7.30
2022-08-27T04:11:29.374Z,8.75
2022-08-27T04:13:56.945Z,7.30
2022-08-27T04:16:23.408Z,8.52
2022-08-27T04:18:49.871Z,7.32
2022-08-27T04:21:16.225Z,8.35
2022-08-27T04:23:43.151Z,7.32
2022-08-27T04:26:11.225Z,7.78
2022-08-27T04:28:39.226Z,7.40
2022-08-27T04:31:12.962Z,7.97
2022-08-27T04:33:51.381Z,7.20
2022-08-27T04:36:18.304Z,8.70
2022-08-27T04:38:44.721Z,7.50
2022-08-27T04:41:21.246Z,7.90
2022-08-27T04:43:56.997Z,8.50
2022-08-27T04:46:30.979Z,9.82
2022-08-27T04:48:59.651Z,7.00
2022-08-27T04:51:28.882Z,8.07
2022-08-27T04:53:56.374Z,7.40
2022-08-27T04:56:26.377Z,7.47
2022-08-27T04:58:53.218Z,6.90
2022-08-27T05:01:23.093Z,8.63
2022-08-27T05:03:49.905Z,7.72
2022-08-27T05:06:17.405Z,8.32
2022-08-27T05:08:44.240Z,7.55
2022-08-27T05:11:14.974Z,7.75
2022-08-27T05:13:42.588Z,8.15
2022-08-27T05:16:12.605Z,7.55
2022-08-27T05:18:41.713Z,7.63
2022-08-27T05:21:24.170Z,7.80
2022-08-27T05:23:51.433Z,7.65
2022-08-27T05:26:18.405Z,9.15
2022-08-27T05:28:47.606Z,7.63
2022-08-27T05:31:15.319Z,8.35
2022-08-27T05:33:43.191Z,7.35
2022-08-27T05:36:20.552Z,7.88
2022-08-27T05:38:49.252Z,7.05
2022-08-27T05:41:19.373Z,8.35
2022-08-27T05:43:49.933Z,7.28
2022-08-27T05:46:20.248Z,7.55
2022-08-27T05:48:48.498Z,7.53
2022-08-27T05:51:16.320Z,8.02
2022-08-27T05:54:02.889Z,6.90
2022-08-27T05:56:34.457Z,6.57
2022-08-27T05:59:19.594Z,7.28
2022-08-27T06:01:49.252Z,6.15
2022-08-27T06:04:17.504Z,9.02
2022-08-27T06:06:45.487Z,6.35
2022-08-27T06:09:15.550Z,7.40
2022-08-27T06:11:42.050Z,6.05
2022-08-27T06:14:12.409Z,6.70
2022-08-27T06:16:40.486Z,6.53
2022-08-27T06:19:08.396Z,6.68
2022-08-27T06:21:35.125Z,6.65
2022-08-27T06:24:01.909Z,6.40
2022-08-27T06:26:28.664Z,6.45
2022-08-27T06:28:55.483Z,6.50
2022-08-27T06:31:27.396Z,7.50
2022-08-27T06:33:58.457Z,6.32
2022-08-27T06:36:30.088Z,6.80
2022-08-27T06:38:57.347Z,6.13
2022-08-27T06:41:26.651Z,6.70
2022-08-27T06:43:54.754Z,6.35
2022-08-27T06:46:23.773Z,7.45
2022-08-27T06:48:54.887Z,6.10
2022-08-27T06:51:26.049Z,7.38
2022-08-27T06:53:54.989Z,6.25
2022-08-27T06:56:22.486Z,7.90
2022-08-27T06:58:53.394Z,6.10
2022-08-27T07:01:24.203Z,6.95
2022-08-27T07:03:50.981Z,6.35
2022-08-27T07:06:18.202Z,7.95
2022-08-27T07:08:53.190Z,7.57
2022-08-27T07:11:20.539Z,8.02
2022-08-27T07:13:48.246Z,6.30
2022-08-27T07:16:17.774Z,8.05
2022-08-27T07:18:44.782Z,6.05
2022-08-27T07:21:12.207Z,7.97
2022-08-27T07:23:42.033Z,6.60
2022-08-27T07:26:11.379Z,6.88
2022-08-27T07:28:39.345Z,6.47
2022-08-27T07:31:09.107Z,6.38
2022-08-27T07:33:37.106Z,5.95
2022-08-27T07:36:05.937Z,6.30
2022-08-27T07:38:33.057Z,7.00
2022-08-27T07:40:59.636Z,6.85
2022-08-27T07:43:44.781Z,7.70
2022-08-27T07:46:11.259Z,7.22
2022-08-27T07:48:37.923Z,6.55
2022-08-27T07:51:08.405Z,6.90
2022-08-27T07:53:34.771Z,7.10
2022-08-27T07:56:05.997Z,6.75
2022-08-27T07:58:32.622Z,6.88
2022-08-27T08:00:59.224Z,6.55
2022-08-27T08:03:25.959Z,7.38
2022-08-27T08:05:53.356Z,6.72
2022-08-27T08:08:21.468Z,7.65
2022-08-27T08:10:48.777Z,7.40
2022-08-27T08:13:16.997Z,7.82
2022-08-27T08:15:46.202Z,6.20
2022-08-27T08:18:13.653Z,7.45
2022-08-27T08:20:57.086Z,6.53
2022-08-27T08:23:24.424Z,8.15
2022-08-27T08:25:50.838Z,6.75
2022-08-27T08:28:17.213Z,7.75
2022-08-27T08:30:47.667Z,6.95
2022-08-27T08:33:14.082Z,6.85
2022-08-27T08:35:41.481Z,6.32
2022-08-27T08:38:08.851Z,6.15
2022-08-27T08:40:56.045Z,6.45
2022-08-27T08:43:40.010Z,6.35
2022-08-27T08:47:01.622Z,6.47
2022-08-27T08:49:45.001Z,6.13
2022-08-27T08:52:30.544Z,6.65
2022-08-27T08:55:29.061Z,6.18
2022-08-27T08:58:12.430Z,5.95
2022-08-27T09:00:42.162Z,6.15
2022-08-27T09:03:12.209Z,6.22
2022-08-27T09:05:43.555Z,6.22
2022-08-27T09:08:41.325Z,6.90
2022-08-27T09:11:22.874Z,6.47
2022-08-27T09:13:57.538Z,6.60
2022-08-27T09:16:24.304Z,7.10
2022-08-27T09:18:52.631Z,6.05
2022-08-27T09:21:51.260Z,7.25
2022-08-27T09:24:52.764Z,7.85
2022-08-27T09:27:21.019Z,5.97
2022-08-27T09:29:53.378Z,6.07
2022-08-27T09:32:31.386Z,7.68
2022-08-27T09:35:00.027Z,5.80
2022-08-27T09:37:33.916Z,6.72
2022-08-27T09:40:23.105Z,6.00
2022-08-27T09:42:57.137Z,6.30
2022-08-27T09:45:27.301Z,6.57
2022-08-27T09:48:03.920Z,5.60
2022-08-27T09:50:59.059Z,5.57
2022-08-27T09:53:57.520Z,7.25
2022-08-27T09:56:26.508Z,7.15
2022-08-27T09:59:00.028Z,6.03
2022-08-27T10:01:29.467Z,6.43
2022-08-27T10:04:14.970Z,6.20
2022-08-27T10:06:47.596Z,5.85
2022-08-27T10:09:47.736Z,6.85
2022-08-27T10:12:26.818Z,6.70
2022-08-27T10:14:58.878Z,5.72
2022-08-27T10:17:25.304Z,6.68
2022-08-27T10:20:25.823Z,6.13
2022-08-27T10:23:05.945Z,5.60
2022-08-27T10:25:44.796Z,5.97
2022-08-27T10:28:38.786Z,6.78
2022-08-27T10:31:08.303Z,6.28
2022-08-27T10:33:39.605Z,6.28
2022-08-27T10:36:12.300Z,5.90
2022-08-27T10:38:44.988Z,5.88
2022-08-27T10:41:29.510Z,6.60
2022-08-27T10:43:55.836Z,6.15
2022-08-27T10:46:50.680Z,7.07
2022-08-27T10:49:26.101Z,6.95
2022-08-27T10:51:58.853Z,5.40
2022-08-27T10:54:54.501Z,7.10
2022-08-27T10:57:55.167Z,7.03
2022-08-27T11:00:25.068Z,6.30
2022-08-27T11:03:10.713Z,5.57
2022-08-27T11:05:46.439Z,6.03
2022-08-27T11:08:15.702Z,6.85
2022-08-27T11:10:54.393Z,6.03
2022-08-27T11:13:27.873Z,6.80
2022-08-27T11:15:56.528Z,6.10
2022-08-27T11:18:51.709Z,7.25
2022-08-27T11:21:25.261Z,7.00
2022-08-27T11:24:00.534Z,5.97
2022-08-27T11:26:31.652Z,6.70
2022-08-27T11:29:01.828Z,5.78
2022-08-27T11:31:36.983Z,6.68
2022-08-27T11:34:20.778Z,5.88
2022-08-27T11:37:04.633Z,5.80
2022-08-27T11:39:59.126Z,5.97
2022-08-27T11:42:39.425Z,6.85
2022-08-27T11:45:15.419Z,5.95
2022-08-27T11:47:54.658Z,6.03
2022-08-27T11:50:22.485Z,7.15
2022-08-27T11:53:26.650Z,5.75
2022-08-27T11:55:55.133Z,6.03
2022-08-27T11:58:21.790Z,6.70
2022-08-27T12:00:48.909Z,5.75
2022-08-27T12:03:21.329Z,7.03
2022-08-27T12:05:53.852Z,6.13
2022-08-27T12:08:23.989Z,7.03
2022-08-27T12:11:09.134Z,6.63
2022-08-27T12:13:56.692Z,6.15
2022-08-27T12:16:46.877Z,7.05
2022-08-27T12:19:31.277Z,7.20
2022-08-27T12:22:07.428Z,5.75
2022-08-27T12:24:56.070Z,6.07
2022-08-27T12:27:24.352Z,6.85
2022-08-27T12:30:18.751Z,5.85
2022-08-27T12:32:48.432Z,5.85
2022-08-27T12:35:16.459Z,6.70
2022-08-27T12:37:48.332Z,6.22
2022-08-27T12:40:30.412Z,7.10
2022-08-27T12:43:17.854Z,5.80
2022-08-27T12:45:56.709Z,6.20
2022-08-27T12:48:36.822Z,7.15
2022-08-27T12:51:08.957Z,6.07
2022-08-27T12:53:47.728Z,6.20
2022-08-27T12:56:33.961Z,7.40
2022-08-27T12:59:07.893Z,6.05
2022-08-27T13:01:56.266Z,6.22
2022-08-27T13:04:28.638Z,6.88
2022-08-27T13:06:55.322Z,5.80
2022-08-27T13:09:38.010Z,7.13
2022-08-27T13:12:14.774Z,6.00
2022-08-27T13:14:41.696Z,5.90
2022-08-27T13:17:18.662Z,6.22
2022-08-27T13:19:51.096Z,6.25
2022-08-27T13:22:23.180Z,7.28
2022-08-27T13:24:53.770Z,6.05
2022-08-27T13:27:32.343Z,7.28
2022-08-27T13:30:22.978Z,6.13
2022-08-27T13:33:00.360Z,6.22
2022-08-27T13:35:26.969Z,6.60
2022-08-27T13:37:54.604Z,6.90
2022-08-27T13:40:37.727Z,7.45
2022-08-27T13:43:09.429Z,7.00
2022-08-27T13:45:38.805Z,6.93
2022-08-27T13:48:08.497Z,6.78
2022-08-27T13:50:36.707Z,6.53
2022-08-27T13:53:25.771Z,6.60
2022-08-27T13:55:54.628Z,6.63
2022-08-27T13:58:28.210Z,7.35
2022-08-27T14:01:06.689Z,7.07
2022-08-27T14:03:38.958Z,5.85
2022-08-27T14:06:05.885Z,6.03
2022-08-27T14:08:38.762Z,6.68
2022-08-27T14:11:09.632Z,6.20
2022-08-27T14:13:46.608Z,6.10
2022-08-27T14:16:23.960Z,6.50
2022-08-27T14:19:01.480Z,5.60
2022-08-27T14:21:27.885Z,6.00
2022-08-27T14:23:54.256Z,7.28
2022-08-27T14:26:20.821Z,6.00
2022-08-27T14:28:47.695Z,5.70
2022-08-27T14:31:14.483Z,6.85
2022-08-27T14:33:41.142Z,6.10
2022-08-27T14:36:08.884Z,5.85
2022-08-27T14:38:40.797Z,6.00
2022-08-27T14:41:08.594Z,5.72
2022-08-27T14:43:35.685Z,5.45
2022-08-27T14:46:02.915Z,5.88
2022-08-27T14:48:32.438Z,6.00
2022-08-27T14:51:02.155Z,6.00
2022-08-27T14:53:28.962Z,6.43
2022-08-27T14:55:58.769Z,6.13
2022-08-27T14:58:25.506Z,7.22
2022-08-27T15:00:52.096Z,6.50
2022-08-27T15:03:19.834Z,6.93
2022-08-27T15:05:46.201Z,6.10
2022-08-27T15:08:15.712Z,6.70
2022-08-27T15:10:42.854Z,5.95
2022-08-27T15:13:11.341Z,5.65
2022-08-27T15:15:38.862Z,5.95
2022-08-27T15:18:05.925Z,5.50
2022-08-27T15:20:32.728Z,5.65
2022-08-27T15:22:59.179Z,5.63
2022-08-27T15:25:25.621Z,6.82
2022-08-27T15:27:52.206Z,5.70
2022-08-27T15:30:25.429Z,7.13
2022-08-27T15:32:51.834Z,5.88
2022-08-27T15:35:23.201Z,7.35
2022-08-27T15:37:49.739Z,5.63
2022-08-27T15:40:18.330Z,6.85
2022-08-27T15:42:46.957Z,5.95
2022-08-27T15:45:14.438Z,6.18
2022-08-27T15:47:40.852Z,6.15
2022-08-27T15:50:08.079Z,5.72
2022-08-27T15:52:40.666Z,5.38
2022-08-27T15:55:14.881Z,5.53
2022-08-27T15:57:41.318Z,5.95
2022-08-27T16:00:08.977Z,5.68
2022-08-27T16:02:35.497Z,5.40
2022-08-27T16:05:02.049Z,5.55
2022-08-27T16:07:28.532Z,5.78
2022-08-27T16:09:54.950Z,5.50
2022-08-27T16:12:22.412Z,5.93
2022-08-27T16:14:53.645Z,5.70
2022-08-27T16:17:21.224Z,5.80
2022-08-27T16:19:47.818Z,5.72
2022-08-27T16:22:16.130Z,6.55
2022-08-27T16:24:42.855Z,5.32
2022-08-27T16:27:09.750Z,5.32
2022-08-27T16:29:37.042Z,5.78
2022-08-27T16:32:03.832Z,5.25
2022-08-27T16:34:31.017Z,5.82
2022-08-27T16:36:57.388Z,5.80
2022-08-27T16:39:23.819Z,5.50
2022-08-27T16:41:50.327Z,5.70
2022-08-27T16:44:17.586Z,7.82
2022-08-27T16:46:44.128Z,6.00
2022-08-27T16:49:29.846Z,7.25
2022-08-27T16:51:56.321Z,5.88
2022-08-27T16:54:22.924Z,6.63
2022-08-27T16:56:49.737Z,5.50
2022-08-27T16:59:16.514Z,6.72
2022-08-27T17:01:43.613Z,5.82
2022-08-27T17:04:18.418Z,5.50
2022-08-27T17:06:51.665Z,5.28
2022-08-27T17:09:19.043Z,6.90
2022-08-27T17:11:50.799Z,5.40
2022-08-27T17:14:17.156Z,6.80
2022-08-27T17:16:43.864Z,5.60
2022-08-27T17:19:16.688Z,5.80
2022-08-27T17:21:47.628Z,5.70
2022-08-27T17:24:14.003Z,6.40
2022-08-27T17:26:40.379Z,5.53
2022-08-27T17:29:07.088Z,5.50
2022-08-27T17:31:36.844Z,5.72
2022-08-27T17:34:04.377Z,5.78
2022-08-27T17:36:32.036Z,5.70
2022-08-27T17:38:59.983Z,5.50
2022-08-27T17:41:33.837Z,6.30
2022-08-27T17:44:04.592Z,5.85
2022-08-27T17:46:31.146Z,5.50
2022-08-27T17:48:57.853Z,5.93
2022-08-27T17:51:24.320Z,7.68
2022-08-27T17:53:57.223Z,5.45
2022-08-27T17:56:26.855Z,6.07
2022-08-27T17:58:54.034Z,5.82
2022-08-27T18:01:28.366Z,6.65
2022-08-27T18:03:56.683Z,6.07
2022-08-27T18:06:23.549Z,6.68
2022-08-27T18:08:49.945Z,5.57
2022-08-27T18:11:16.620Z,6.57
2022-08-27T18:13:43.221Z,5.68
2022-08-27T18:16:09.898Z,5.53
2022-08-27T18:18:36.272Z,5.80
2022-08-27T18:21:02.703Z,5.65
2022-08-27T18:23:29.174Z,6.25
2022-08-27T18:25:56.400Z,5.80
2022-08-27T18:28:23.286Z,6.72
2022-08-27T18:30:50.592Z,5.40
2022-08-27T18:33:17.230Z,6.88
2022-08-27T18:35:43.700Z,5.50
2022-08-27T18:38:10.087Z,5.60
2022-08-27T18:40:45.960Z,5.50
2022-08-27T18:43:14.232Z,6.28
2022-08-27T18:45:40.703Z,5.50
2022-08-27T18:48:21.573Z,5.40
2022-08-27T18:50:56.974Z,5.53
2022-08-27T18:53:24.507Z,6.43
2022-08-27T18:55:51.596Z,5.60
2022-08-27T18:58:18.708Z,6.60
2022-08-27T19:00:48.537Z,5.50
2022-08-27T19:03:21.689Z,6.82
2022-08-27T19:05:48.801Z,5.63
2022-08-27T19:08:22.108Z,6.47
2022-08-27T19:10:48.549Z,5.30
2022-08-27T19:13:14.955Z,6.75
2022-08-27T19:15:46.365Z,6.00
2022-08-27T19:18:12.999Z,6.32
2022-08-27T19:20:39.514Z,5.75
2022-08-27T19:23:05.983Z,5.85
2022-08-27T19:25:32.612Z,5.47
2022-08-27T19:27:59.152Z,5.90
2022-08-27T19:30:25.581Z,6.95
2022-08-27T19:32:54.862Z,6.00
2022-08-27T19:35:24.466Z,6.63
2022-08-27T19:37:53.040Z,6.22
2022-08-27T19:40:21.751Z,7.18
2022-08-27T19:42:48.457Z,5.82
2022-08-27T19:45:14.897Z,5.90
2022-08-27T19:47:41.349Z,5.70
2022-08-27T19:50:08.417Z,5.72
2022-08-27T19:52:35.287Z,5.70
2022-08-27T19:55:15.556Z,5.35
2022-08-27T19:57:43.329Z,5.60
2022-08-27T20:00:12.533Z,5.45
2022-08-27T20:02:39.215Z,5.90
2022-08-27T20:05:17.977Z,5.93
2022-08-27T20:07:45.464Z,5.60
2022-08-27T20:10:11.942Z,6.28
2022-08-27T20:12:38.437Z,5.65
2022-08-27T20:15:06.733Z,5.30
2022-08-27T20:17:34.350Z,6.60
2022-08-27T20:20:01.080Z,5.60
2022-08-27T20:22:27.664Z,5.60
2022-08-27T20:24:54.057Z,5.40
2022-08-27T20:27:20.551Z,6.63
2022-08-27T20:29:47.054Z,5.78
2022-08-27T20:32:13.684Z,6.25
2022-08-27T20:34:40.349Z,5.47
2022-08-27T20:37:07.270Z,5.40
2022-08-27T20:39:34.130Z,5.45
2022-08-27T20:42:00.590Z,5.30
2022-08-27T20:44:27.052Z,5.80
2022-08-27T20:46:59.323Z,5.50
2022-08-27T20:49:27.868Z,5.93
2022-08-27T20:52:02.767Z,5.45
2022-08-27T20:54:31.424Z,5.05
2022-08-27T20:56:58.359Z,5.60
2022-08-27T20:59:43.507Z,6.78
2022-08-27T21:02:12.828Z,5.80
2022-08-27T21:04:47.560Z,5.65
2022-08-27T21:07:15.473Z,6.15
2022-08-27T21:09:55.744Z,5.53
2022-08-27T21:12:23.559Z,7.00
2022-08-27T21:14:50.003Z,5.30
2022-08-27T21:17:21.253Z,6.53
2022-08-27T21:19:47.645Z,6.47
2022-08-27T21:22:14.045Z,6.35
2022-08-27T21:24:40.478Z,5.65
2022-08-27T21:27:07.070Z,5.70
2022-08-27T21:29:33.982Z,5.50
2022-08-27T21:32:00.369Z,5.88
2022-08-27T21:34:28.151Z,6.18
2022-08-27T21:36:54.688Z,5.53
2022-08-27T21:39:21.141Z,6.22
2022-08-27T21:41:48.071Z,5.53
2022-08-27T21:44:14.585Z,6.68
2022-08-27T21:46:41.196Z,5.50
2022-08-27T21:49:08.012Z,5.60
2022-08-27T21:51:34.359Z,5.60
2022-08-27T21:54:00.819Z,5.50
2022-08-27T21:56:27.736Z,5.82
2022-08-27T21:58:54.136Z,5.75
2022-08-27T22:01:20.678Z,6.65
2022-08-27T22:03:50.654Z,5.78
2022-08-27T22:06:18.266Z,6.72
2022-08-27T22:08:44.961Z,5.40
2022-08-27T22:11:12.129Z,5.80
2022-08-27T22:13:39.137Z,5.43
2022-08-27T22:16:05.755Z,5.40
2022-08-27T22:18:32.389Z,5.55
2022-08-27T22:20:58.845Z,5.43
2022-08-27T22:23:25.877Z,6.35
2022-08-27T22:25:52.613Z,5.60
2022-08-27T22:28:19.109Z,6.38
2022-08-27T22:30:45.576Z,5.47
2022-08-27T22:33:13.228Z,6.18
2022-08-27T22:35:40.037Z,5.50
2022-08-27T22:38:07.148Z,6.00
2022-08-27T22:40:35.272Z,5.70
2022-08-27T22:43:01.935Z,5.53
2022-08-27T22:45:29.028Z,5.65
2022-08-27T22:47:55.830Z,5.32
2022-08-27T22:50:22.837Z,6.68
2022-08-27T22:52:50.101Z,5.57
2022-08-27T22:55:19.316Z,6.45
2022-08-27T22:57:51.337Z,5.07
2022-08-27T23:00:27.257Z,6.50
2022-08-27T23:02:53.986Z,5.35
2022-08-27T23:05:21.457Z,6.47
2022-08-27T23:07:48.824Z,5.38
2022-08-27T23:10:17.303Z,6.40
2022-08-27T23:12:45.908Z,5.20
2022-08-27T23:15:14.865Z,6.03
2022-08-27T23:17:41.244Z,5.50
2022-08-27T23:20:09.698Z,5.03
2022-08-27T23:22:37.446Z,5.28
2022-08-27T23:25:23.999Z,5.47
2022-08-27T23:27:50.374Z,5.35
2022-08-27T23:30:18.224Z,6.75
2022-08-27T23:32:48.862Z,5.35
2022-08-27T23:35:22.496Z,6.40
2022-08-27T23:37:50.291Z,4.95
2022-08-27T23:40:18.415Z,6.30
2022-08-27T23:42:45.877Z,5.40
2022-08-27T23:45:17.088Z,5.88
2022-08-27T23:47:43.516Z,5.10
2022-08-27T23:50:11.497Z,5.68
2022-08-27T23:52:39.209Z,5.20
2022-08-27T23:55:08.200Z,5.40
2022-08-27T23:57:34.643Z,5.32
